sensor_id;sensor_type;location;lat;lon;timestamp;P1;durP1;ratioP1;P2;durP2;ratioP2
73951;SDS011;62304;47.662;18.324;2023-12-14T00:01:34;32.30;;;14.27;;
73951;SDS011;62304;47.662;18.324;2023-12-14T00:04:37;29.40;;;13.53;;
73951;SDS011;62304;47.662;18.324;2023-12-14T00:07:40;30.98;;;13.30;;
73951;SDS011;62304;47.662;18.324;2023-12-14T00:10:44;30.23;;;12.85;;
73951;SDS011;62304;47.662;18.324;2023-12-14T00:13:49;29.23;;;13.30;;
73951;SDS011;62304;47.662;18.324;2023-12-14T00:16:53;31.53;;;14.97;;
73951;SDS011;62304;47.662;18.324;2023-12-14T00:19:57;30.03;;;12.73;;
73951;SDS011;62304;47.662;18.324;2023-12-14T00:23:00;33.05;;;14.77;;
73951;SDS011;62304;47.662;18.324;2023-12-14T00:26:03;31.52;;;14.10;;
73951;SDS011;62304;47.662;18.324;2023-12-14T00:29:07;29.27;;;13.48;;
73951;SDS011;62304;47.662;18.324;2023-12-14T00:32:10;33.63;;;14.77;;
73951;SDS011;62304;47.662;18.324;2023-12-14T00:35:13;35.77;;;15.63;;
73951;SDS011;62304;47.662;18.324;2023-12-14T00:38:16;30.88;;;14.65;;
73951;SDS011;62304;47.662;18.324;2023-12-14T00:41:20;29.77;;;13.93;;
73951;SDS011;62304;47.662;18.324;2023-12-14T00:44:23;34.13;;;14.55;;
73951;SDS011;62304;47.662;18.324;2023-12-14T00:47:27;34.37;;;14.77;;
73951;SDS011;62304;47.662;18.324;2023-12-14T00:50:30;33.22;;;14.80;;
73951;SDS011;62304;47.662;18.324;2023-12-14T00:53:33;31.40;;;13.90;;
73951;SDS011;62304;47.662;18.324;2023-12-14T00:56:36;35.13;;;15.45;;
73951;SDS011;62304;47.662;18.324;2023-12-14T00:59:40;30.85;;;14.00;;
73951;SDS011;62304;47.662;18.324;2023-12-14T01:02:44;33.43;;;15.23;;
73951;SDS011;62304;47.662;18.324;2023-12-14T01:05:48;29.42;;;13.80;;
73951;SDS011;62304;47.662;18.324;2023-12-14T01:08:51;34.08;;;14.95;;
73951;SDS011;62304;47.662;18.324;2023-12-14T01:11:55;32.92;;;15.10;;
73951;SDS011;62304;47.662;18.324;2023-12-14T01:14:58;30.92;;;14.13;;
73951;SDS011;62304;47.662;18.324;2023-12-14T01:18:01;32.57;;;13.67;;
73951;SDS011;62304;47.662;18.324;2023-12-14T01:21:04;36.35;;;15.27;;
73951;SDS011;62304;47.662;18.324;2023-12-14T01:24:08;36.53;;;15.57;;
73951;SDS011;62304;47.662;18.324;2023-12-14T01:27:11;34.28;;;14.13;;
73951;SDS011;62304;47.662;18.324;2023-12-14T01:30:16;28.23;;;12.52;;
73951;SDS011;62304;47.662;18.324;2023-12-14T01:33:19;32.27;;;14.70;;
73951;SDS011;62304;47.662;18.324;2023-12-14T01:36:24;33.65;;;15.15;;
73951;SDS011;62304;47.662;18.324;2023-12-14T01:39:27;37.17;;;14.95;;
73951;SDS011;62304;47.662;18.324;2023-12-14T01:42:31;35.92;;;15.30;;
73951;SDS011;62304;47.662;18.324;2023-12-14T01:45:37;36.28;;;15.70;;
73951;SDS011;62304;47.662;18.324;2023-12-14T01:48:40;41.40;;;16.13;;
73951;SDS011;62304;47.662;18.324;2023-12-14T01:51:43;34.28;;;14.95;;
73951;SDS011;62304;47.662;18.324;2023-12-14T01:54:47;51.75;;;16.45;;
73951;SDS011;62304;47.662;18.324;2023-12-14T01:57:50;57.25;;;16.45;;
73951;SDS011;62304;47.662;18.324;2023-12-14T02:04:02;44.47;;;14.90;;
73951;SDS011;62304;47.662;18.324;2023-12-14T02:07:09;48.47;;;16.10;;
73951;SDS011;62304;47.662;18.324;2023-12-14T02:10:12;43.60;;;15.93;;
73951;SDS011;62304;47.662;18.324;2023-12-14T02:13:15;43.97;;;16.12;;
73951;SDS011;62304;47.662;18.324;2023-12-14T02:16:18;94.18;;;17.77;;
73951;SDS011;62304;47.662;18.324;2023-12-14T02:19:22;70.27;;;16.30;;
73951;SDS011;62304;47.662;18.324;2023-12-14T02:22:25;60.90;;;16.98;;
73951;SDS011;62304;47.662;18.324;2023-12-14T02:25:28;65.25;;;16.20;;
73951;SDS011;62304;47.662;18.324;2023-12-14T02:28:32;73.20;;;17.30;;
73951;SDS011;62304;47.662;18.324;2023-12-14T02:31:35;54.05;;;16.42;;
73951;SDS011;62304;47.662;18.324;2023-12-14T02:34:38;53.93;;;16.40;;
73951;SDS011;62304;47.662;18.324;2023-12-14T02:37:41;46.30;;;15.20;;
73951;SDS011;62304;47.662;18.324;2023-12-14T02:40:45;82.60;;;17.27;;
73951;SDS011;62304;47.662;18.324;2023-12-14T02:43:48;80.57;;;17.52;;
73951;SDS011;62304;47.662;18.324;2023-12-14T02:46:51;66.43;;;15.57;;
73951;SDS011;62304;47.662;18.324;2023-12-14T02:49:54;55.33;;;15.17;;
73951;SDS011;62304;47.662;18.324;2023-12-14T02:52:58;51.50;;;16.70;;
73951;SDS011;62304;47.662;18.324;2023-12-14T02:56:02;58.55;;;15.15;;
73951;SDS011;62304;47.662;18.324;2023-12-14T02:59:06;62.92;;;19.45;;
73951;SDS011;62304;47.662;18.324;2023-12-14T03:02:09;103.78;;;20.10;;
73951;SDS011;62304;47.662;18.324;2023-12-14T03:05:14;49.23;;;15.63;;
73951;SDS011;62304;47.662;18.324;2023-12-14T03:08:20;38.65;;;16.20;;
73951;SDS011;62304;47.662;18.324;2023-12-14T03:11:24;53.72;;;16.40;;
73951;SDS011;62304;47.662;18.324;2023-12-14T03:14:31;50.00;;;15.43;;
73951;SDS011;62304;47.662;18.324;2023-12-14T03:17:35;63.10;;;16.73;;
73951;SDS011;62304;47.662;18.324;2023-12-14T03:20:38;63.03;;;16.50;;
73951;SDS011;62304;47.662;18.324;2023-12-14T03:23:42;62.55;;;17.40;;
73951;SDS011;62304;47.662;18.324;2023-12-14T03:26:45;52.55;;;16.92;;
73951;SDS011;62304;47.662;18.324;2023-12-14T03:29:48;62.60;;;16.48;;
73951;SDS011;62304;47.662;18.324;2023-12-14T03:32:51;66.40;;;17.33;;
73951;SDS011;62304;47.662;18.324;2023-12-14T03:35:54;64.00;;;17.60;;
73951;SDS011;62304;47.662;18.324;2023-12-14T03:38:59;54.40;;;15.73;;
73951;SDS011;62304;47.662;18.324;2023-12-14T03:42:02;57.75;;;17.00;;
73951;SDS011;62304;47.662;18.324;2023-12-14T03:45:05;43.10;;;15.82;;
73951;SDS011;62304;47.662;18.324;2023-12-14T03:48:09;42.08;;;15.52;;
73951;SDS011;62304;47.662;18.324;2023-12-14T03:51:13;46.53;;;15.67;;
73951;SDS011;62304;47.662;18.324;2023-12-14T03:54:16;47.85;;;16.10;;
73951;SDS011;62304;47.662;18.324;2023-12-14T03:57:19;51.45;;;15.80;;
73951;SDS011;62304;47.662;18.324;2023-12-14T04:00:22;56.75;;;15.75;;
73951;SDS011;62304;47.662;18.324;2023-12-14T04:03:26;49.22;;;15.93;;
73951;SDS011;62304;47.662;18.324;2023-12-14T04:06:29;51.90;;;15.50;;
73951;SDS011;62304;47.662;18.324;2023-12-14T04:09:33;48.50;;;16.12;;
73951;SDS011;62304;47.662;18.324;2023-12-14T04:12:36;52.72;;;16.52;;
73951;SDS011;62304;47.662;18.324;2023-12-14T04:15:40;57.40;;;17.48;;
73951;SDS011;62304;47.662;18.324;2023-12-14T04:18:44;58.25;;;18.45;;
73951;SDS011;62304;47.662;18.324;2023-12-14T04:21:49;70.80;;;20.60;;
73951;SDS011;62304;47.662;18.324;2023-12-14T04:24:54;59.88;;;20.88;;
73951;SDS011;62304;47.662;18.324;2023-12-14T04:27:57;49.45;;;18.75;;
73951;SDS011;62304;47.662;18.324;2023-12-14T04:31:00;50.70;;;18.25;;
73951;SDS011;62304;47.662;18.324;2023-12-14T04:34:05;55.53;;;19.52;;
73951;SDS011;62304;47.662;18.324;2023-12-14T04:37:14;53.40;;;18.17;;
73951;SDS011;62304;47.662;18.324;2023-12-14T04:40:18;49.58;;;18.08;;
73951;SDS011;62304;47.662;18.324;2023-12-14T04:43:21;54.90;;;18.00;;
73951;SDS011;62304;47.662;18.324;2023-12-14T04:46:25;55.30;;;18.05;;
73951;SDS011;62304;47.662;18.324;2023-12-14T04:49:28;62.67;;;19.83;;
73951;SDS011;62304;47.662;18.324;2023-12-14T04:52:32;55.13;;;19.60;;
73951;SDS011;62304;47.662;18.324;2023-12-14T04:55:36;63.35;;;18.95;;
73951;SDS011;62304;47.662;18.324;2023-12-14T04:58:39;53.22;;;17.98;;
73951;SDS011;62304;47.662;18.324;2023-12-14T05:01:43;57.00;;;19.17;;
73951;SDS011;62304;47.662;18.324;2023-12-14T05:04:48;50.97;;;19.08;;
73951;SDS011;62304;47.662;18.324;2023-12-14T05:07:51;51.27;;;18.47;;
73951;SDS011;62304;47.662;18.324;2023-12-14T05:10:55;62.60;;;22.33;;
73951;SDS011;62304;47.662;18.324;2023-12-14T05:13:58;71.30;;;20.80;;
73951;SDS011;62304;47.662;18.324;2023-12-14T05:17:01;58.65;;;19.15;;
73951;SDS011;62304;47.662;18.324;2023-12-14T05:20:05;49.38;;;17.50;;
73951;SDS011;62304;47.662;18.324;2023-12-14T05:23:14;44.97;;;16.87;;
73951;SDS011;62304;47.662;18.324;2023-12-14T05:26:17;39.15;;;15.43;;
73951;SDS011;62304;47.662;18.324;2023-12-14T05:29:22;40.08;;;15.77;;
73951;SDS011;62304;47.662;18.324;2023-12-14T05:32:25;38.03;;;15.48;;
73951;SDS011;62304;47.662;18.324;2023-12-14T05:35:30;35.97;;;14.18;;
73951;SDS011;62304;47.662;18.324;2023-12-14T05:38:34;31.80;;;12.77;;
73951;SDS011;62304;47.662;18.324;2023-12-14T05:41:40;32.88;;;13.68;;
73951;SDS011;62304;47.662;18.324;2023-12-14T05:44:44;32.20;;;14.07;;
73951;SDS011;62304;47.662;18.324;2023-12-14T05:47:49;33.03;;;13.50;;
73951;SDS011;62304;47.662;18.324;2023-12-14T05:50:53;26.80;;;11.30;;
73951;SDS011;62304;47.662;18.324;2023-12-14T05:53:57;33.87;;;13.33;;
73951;SDS011;62304;47.662;18.324;2023-12-14T05:57:00;32.35;;;13.62;;
73951;SDS011;62304;47.662;18.324;2023-12-14T06:00:04;32.13;;;13.55;;
73951;SDS011;62304;47.662;18.324;2023-12-14T06:03:10;34.90;;;13.75;;
73951;SDS011;62304;47.662;18.324;2023-12-14T06:06:13;32.03;;;14.38;;
73951;SDS011;62304;47.662;18.324;2023-12-14T06:09:18;33.20;;;14.43;;
73951;SDS011;62304;47.662;18.324;2023-12-14T06:12:24;40.45;;;16.00;;
73951;SDS011;62304;47.662;18.324;2023-12-14T06:15:28;35.28;;;14.85;;
73951;SDS011;62304;47.662;18.324;2023-12-14T06:18:31;31.52;;;14.30;;
73951;SDS011;62304;47.662;18.324;2023-12-14T06:21:34;33.10;;;14.87;;
73951;SDS011;62304;47.662;18.324;2023-12-14T06:24:37;34.20;;;14.27;;
73951;SDS011;62304;47.662;18.324;2023-12-14T06:27:41;39.03;;;19.48;;
73951;SDS011;62304;47.662;18.324;2023-12-14T06:30:44;31.52;;;14.60;;
73951;SDS011;62304;47.662;18.324;2023-12-14T06:33:48;32.92;;;14.15;;
73951;SDS011;62304;47.662;18.324;2023-12-14T06:36:52;29.83;;;12.90;;
73951;SDS011;62304;47.662;18.324;2023-12-14T06:39:55;27.77;;;13.03;;
73951;SDS011;62304;47.662;18.324;2023-12-14T06:42:58;35.50;;;14.65;;
73951;SDS011;62304;47.662;18.324;2023-12-14T06:46:01;31.35;;;13.88;;
73951;SDS011;62304;47.662;18.324;2023-12-14T06:49:04;33.28;;;13.62;;
73951;SDS011;62304;47.662;18.324;2023-12-14T06:52:07;33.77;;;14.33;;
73951;SDS011;62304;47.662;18.324;2023-12-14T06:55:13;36.03;;;13.70;;
73951;SDS011;62304;47.662;18.324;2023-12-14T06:58:17;31.52;;;13.20;;
73951;SDS011;62304;47.662;18.324;2023-12-14T07:01:20;32.28;;;12.85;;
73951;SDS011;62304;47.662;18.324;2023-12-14T07:04:24;33.25;;;14.10;;
73951;SDS011;62304;47.662;18.324;2023-12-14T07:07:27;34.33;;;13.57;;
73951;SDS011;62304;47.662;18.324;2023-12-14T07:10:31;32.92;;;14.38;;
73951;SDS011;62304;47.662;18.324;2023-12-14T07:13:34;35.53;;;13.40;;
73951;SDS011;62304;47.662;18.324;2023-12-14T07:16:39;31.95;;;14.13;;
73951;SDS011;62304;47.662;18.324;2023-12-14T07:19:42;33.55;;;12.73;;
73951;SDS011;62304;47.662;18.324;2023-12-14T07:22:45;34.20;;;14.57;;
73951;SDS011;62304;47.662;18.324;2023-12-14T07:25:48;33.65;;;13.50;;
73951;SDS011;62304;47.662;18.324;2023-12-14T07:28:53;35.58;;;15.85;;
73951;SDS011;62304;47.662;18.324;2023-12-14T07:31:56;33.90;;;14.70;;
73951;SDS011;62304;47.662;18.324;2023-12-14T07:35:00;35.25;;;14.70;;
73951;SDS011;62304;47.662;18.324;2023-12-14T07:38:03;35.97;;;15.17;;
73951;SDS011;62304;47.662;18.324;2023-12-14T07:41:06;33.60;;;14.73;;
73951;SDS011;62304;47.662;18.324;2023-12-14T07:44:09;36.83;;;14.80;;
73951;SDS011;62304;47.662;18.324;2023-12-14T07:47:13;32.65;;;14.57;;
73951;SDS011;62304;47.662;18.324;2023-12-14T07:50:16;30.62;;;13.93;;
73951;SDS011;62304;47.662;18.324;2023-12-14T07:53:20;39.03;;;14.70;;
73951;SDS011;62304;47.662;18.324;2023-12-14T07:56:23;36.88;;;15.10;;
73951;SDS011;62304;47.662;18.324;2023-12-14T07:59:30;31.80;;;14.43;;
73951;SDS011;62304;47.662;18.324;2023-12-14T08:02:33;32.85;;;15.25;;
73951;SDS011;62304;47.662;18.324;2023-12-14T08:05:37;34.03;;;14.60;;
73951;SDS011;62304;47.662;18.324;2023-12-14T08:08:40;31.73;;;13.93;;
73951;SDS011;62304;47.662;18.324;2023-12-14T08:11:43;30.08;;;13.13;;
73951;SDS011;62304;47.662;18.324;2023-12-14T08:14:46;35.28;;;15.55;;
73951;SDS011;62304;47.662;18.324;2023-12-14T08:17:50;36.35;;;16.02;;
73951;SDS011;62304;47.662;18.324;2023-12-14T08:20:53;35.70;;;15.33;;
73951;SDS011;62304;47.662;18.324;2023-12-14T08:23:58;27.30;;;13.23;;
73951;SDS011;62304;47.662;18.324;2023-12-14T08:27:01;30.05;;;13.75;;
73951;SDS011;62304;47.662;18.324;2023-12-14T08:30:06;27.17;;;12.70;;
73951;SDS011;62304;47.662;18.324;2023-12-14T08:33:10;31.27;;;13.82;;
73951;SDS011;62304;47.662;18.324;2023-12-14T08:36:17;31.20;;;14.13;;
73951;SDS011;62304;47.662;18.324;2023-12-14T08:39:20;26.90;;;13.57;;
73951;SDS011;62304;47.662;18.324;2023-12-14T08:42:23;29.65;;;14.65;;
73951;SDS011;62304;47.662;18.324;2023-12-14T08:45:29;29.67;;;14.23;;
73951;SDS011;62304;47.662;18.324;2023-12-14T08:48:32;28.30;;;13.23;;
73951;SDS011;62304;47.662;18.324;2023-12-14T08:51:36;27.93;;;12.90;;
73951;SDS011;62304;47.662;18.324;2023-12-14T08:54:39;27.77;;;12.60;;
73951;SDS011;62304;47.662;18.324;2023-12-14T08:57:45;27.23;;;14.27;;
73951;SDS011;62304;47.662;18.324;2023-12-14T09:00:49;28.10;;;13.18;;
73951;SDS011;62304;47.662;18.324;2023-12-14T09:03:55;28.38;;;13.40;;
73951;SDS011;62304;47.662;18.324;2023-12-14T09:06:59;25.93;;;12.03;;
73951;SDS011;62304;47.662;18.324;2023-12-14T09:10:02;26.63;;;13.43;;
73951;SDS011;62304;47.662;18.324;2023-12-14T09:13:06;26.02;;;12.77;;
73951;SDS011;62304;47.662;18.324;2023-12-14T09:16:09;29.33;;;13.62;;
73951;SDS011;62304;47.662;18.324;2023-12-14T09:19:13;21.75;;;9.85;;
73951;SDS011;62304;47.662;18.324;2023-12-14T09:22:16;26.07;;;12.87;;
73951;SDS011;62304;47.662;18.324;2023-12-14T09:25:20;13.70;;;6.47;;
73951;SDS011;62304;47.662;18.324;2023-12-14T09:28:23;24.77;;;11.23;;
73951;SDS011;62304;47.662;18.324;2023-12-14T09:31:26;27.55;;;12.98;;
73951;SDS011;62304;47.662;18.324;2023-12-14T09:34:29;24.85;;;11.77;;
73951;SDS011;62304;47.662;18.324;2023-12-14T09:37:33;25.47;;;11.67;;
73951;SDS011;62304;47.662;18.324;2023-12-14T09:40:36;17.70;;;8.73;;
73951;SDS011;62304;47.662;18.324;2023-12-14T09:43:39;23.30;;;12.23;;
73951;SDS011;62304;47.662;18.324;2023-12-14T09:46:43;24.55;;;12.48;;
73951;SDS011;62304;47.662;18.324;2023-12-14T09:49:52;19.80;;;9.70;;
73951;SDS011;62304;47.662;18.324;2023-12-14T09:52:55;24.37;;;12.17;;
73951;SDS011;62304;47.662;18.324;2023-12-14T09:55:58;24.70;;;12.37;;
73951;SDS011;62304;47.662;18.324;2023-12-14T09:59:01;22.27;;;10.63;;
73951;SDS011;62304;47.662;18.324;2023-12-14T10:02:10;23.92;;;13.07;;
73951;SDS011;62304;47.662;18.324;2023-12-14T10:05:15;25.00;;;12.37;;
73951;SDS011;62304;47.662;18.324;2023-12-14T10:08:18;26.33;;;13.07;;
73951;SDS011;62304;47.662;18.324;2023-12-14T10:11:22;27.63;;;12.23;;
73951;SDS011;62304;47.662;18.324;2023-12-14T10:14:25;27.30;;;13.75;;
73951;SDS011;62304;47.662;18.324;2023-12-14T10:17:29;21.02;;;9.30;;
73951;SDS011;62304;47.662;18.324;2023-12-14T10:20:35;25.45;;;13.52;;
73951;SDS011;62304;47.662;18.324;2023-12-14T10:23:44;24.53;;;11.57;;
73951;SDS011;62304;47.662;18.324;2023-12-14T10:26:49;24.20;;;12.57;;
73951;SDS011;62304;47.662;18.324;2023-12-14T10:29:55;26.10;;;11.93;;
73951;SDS011;62304;47.662;18.324;2023-12-14T10:32:58;18.52;;;8.80;;
73951;SDS011;62304;47.662;18.324;2023-12-14T10:36:02;26.02;;;11.95;;
73951;SDS011;62304;47.662;18.324;2023-12-14T10:39:06;23.77;;;10.13;;
73951;SDS011;62304;47.662;18.324;2023-12-14T10:42:11;24.83;;;11.83;;
73951;SDS011;62304;47.662;18.324;2023-12-14T10:45:22;16.55;;;8.40;;
73951;SDS011;62304;47.662;18.324;2023-12-14T10:48:31;23.20;;;11.30;;
73951;SDS011;62304;47.662;18.324;2023-12-14T10:51:34;25.08;;;10.30;;
73951;SDS011;62304;47.662;18.324;2023-12-14T10:54:40;23.47;;;10.83;;
73951;SDS011;62304;47.662;18.324;2023-12-14T10:57:45;22.10;;;11.17;;
73951;SDS011;62304;47.662;18.324;2023-12-14T11:01:00;22.60;;;10.45;;
73951;SDS011;62304;47.662;18.324;2023-12-14T11:04:06;19.87;;;9.52;;
73951;SDS011;62304;47.662;18.324;2023-12-14T11:07:16;21.85;;;10.93;;
73951;SDS011;62304;47.662;18.324;2023-12-14T11:11:03;21.53;;;10.13;;
73951;SDS011;62304;47.662;18.324;2023-12-14T11:13:50;22.37;;;10.57;;
73951;SDS011;62304;47.662;18.324;2023-12-14T11:16:56;20.73;;;10.05;;
73951;SDS011;62304;47.662;18.324;2023-12-14T11:20:23;16.55;;;8.25;;
73951;SDS011;62304;47.662;18.324;2023-12-14T11:23:28;20.92;;;10.50;;
73951;SDS011;62304;47.662;18.324;2023-12-14T11:26:33;14.23;;;7.27;;
73951;SDS011;62304;47.662;18.324;2023-12-14T11:29:36;19.03;;;9.47;;
73951;SDS011;62304;47.662;18.324;2023-12-14T11:32:40;19.80;;;9.55;;
73951;SDS011;62304;47.662;18.324;2023-12-14T11:35:43;21.12;;;10.55;;
73951;SDS011;62304;47.662;18.324;2023-12-14T11:38:47;19.35;;;9.75;;
73951;SDS011;62304;47.662;18.324;2023-12-14T11:42:00;20.43;;;10.77;;
73951;SDS011;62304;47.662;18.324;2023-12-14T11:45:05;16.00;;;7.57;;
73951;SDS011;62304;47.662;18.324;2023-12-14T11:48:10;21.02;;;9.18;;
73951;SDS011;62304;47.662;18.324;2023-12-14T11:51:15;21.27;;;10.27;;
73951;SDS011;62304;47.662;18.324;2023-12-14T11:54:19;15.27;;;8.25;;
73951;SDS011;62304;47.662;18.324;2023-12-14T11:57:28;20.97;;;8.90;;
73951;SDS011;62304;47.662;18.324;2023-12-14T12:00:31;21.50;;;10.23;;
73951;SDS011;62304;47.662;18.324;2023-12-14T12:03:36;21.60;;;9.55;;
73951;SDS011;62304;47.662;18.324;2023-12-14T12:06:39;21.42;;;10.43;;
73951;SDS011;62304;47.662;18.324;2023-12-14T12:09:43;21.17;;;9.80;;
73951;SDS011;62304;47.662;18.324;2023-12-14T12:12:46;17.87;;;8.70;;
73951;SDS011;62304;47.662;18.324;2023-12-14T12:15:50;21.20;;;10.47;;
73951;SDS011;62304;47.662;18.324;2023-12-14T12:18:53;21.80;;;11.23;;
73951;SDS011;62304;47.662;18.324;2023-12-14T12:21:56;20.85;;;10.43;;
73951;SDS011;62304;47.662;18.324;2023-12-14T12:24:59;20.77;;;11.23;;
73951;SDS011;62304;47.662;18.324;2023-12-14T12:28:16;20.97;;;9.97;;
73951;SDS011;62304;47.662;18.324;2023-12-14T12:31:19;19.97;;;10.00;;
73951;SDS011;62304;47.662;18.324;2023-12-14T12:34:23;18.92;;;9.30;;
73951;SDS011;62304;47.662;18.324;2023-12-14T12:37:26;17.70;;;9.35;;
73951;SDS011;62304;47.662;18.324;2023-12-14T12:40:29;20.17;;;9.85;;
73951;SDS011;62304;47.662;18.324;2023-12-14T12:43:34;20.03;;;10.60;;
73951;SDS011;62304;47.662;18.324;2023-12-14T12:46:37;15.57;;;8.45;;
73951;SDS011;62304;47.662;18.324;2023-12-14T12:49:40;20.55;;;10.65;;
73951;SDS011;62304;47.662;18.324;2023-12-14T12:52:46;25.23;;;11.95;;
73951;SDS011;62304;47.662;18.324;2023-12-14T12:55:52;18.42;;;9.73;;
73951;SDS011;62304;47.662;18.324;2023-12-14T12:58:55;18.37;;;9.73;;
73951;SDS011;62304;47.662;18.324;2023-12-14T13:01:59;20.23;;;10.15;;
73951;SDS011;62304;47.662;18.324;2023-12-14T13:05:02;21.90;;;9.80;;
73951;SDS011;62304;47.662;18.324;2023-12-14T13:08:11;18.37;;;8.00;;
73951;SDS011;62304;47.662;18.324;2023-12-14T13:11:14;18.10;;;8.80;;
73951;SDS011;62304;47.662;18.324;2023-12-14T13:14:17;13.90;;;6.23;;
73951;SDS011;62304;47.662;18.324;2023-12-14T13:17:21;12.48;;;6.25;;
73951;SDS011;62304;47.662;18.324;2023-12-14T13:20:24;16.00;;;8.23;;
73951;SDS011;62304;47.662;18.324;2023-12-14T13:23:28;17.02;;;9.77;;
73951;SDS011;62304;47.662;18.324;2023-12-14T13:26:33;17.60;;;9.23;;
73951;SDS011;62304;47.662;18.324;2023-12-14T13:29:36;16.57;;;8.40;;
73951;SDS011;62304;47.662;18.324;2023-12-14T13:32:40;16.48;;;8.20;;
73951;SDS011;62304;47.662;18.324;2023-12-14T13:35:43;17.23;;;7.90;;
73951;SDS011;62304;47.662;18.324;2023-12-14T13:38:49;19.83;;;9.40;;
73951;SDS011;62304;47.662;18.324;2023-12-14T13:41:53;19.80;;;9.98;;
73951;SDS011;62304;47.662;18.324;2023-12-14T13:44:56;18.87;;;9.07;;
73951;SDS011;62304;47.662;18.324;2023-12-14T13:48:00;19.60;;;9.13;;
73951;SDS011;62304;47.662;18.324;2023-12-14T13:51:03;17.65;;;8.70;;
73951;SDS011;62304;47.662;18.324;2023-12-14T13:54:07;14.85;;;7.72;;
73951;SDS011;62304;47.662;18.324;2023-12-14T13:57:10;16.15;;;7.65;;
73951;SDS011;62304;47.662;18.324;2023-12-14T14:00:14;18.27;;;8.33;;
73951;SDS011;62304;47.662;18.324;2023-12-14T14:03:19;17.17;;;8.45;;
73951;SDS011;62304;47.662;18.324;2023-12-14T14:06:22;18.35;;;8.57;;
73951;SDS011;62304;47.662;18.324;2023-12-14T14:09:26;19.40;;;8.50;;
73951;SDS011;62304;47.662;18.324;2023-12-14T14:12:29;16.90;;;8.65;;
73951;SDS011;62304;47.662;18.324;2023-12-14T14:15:33;14.90;;;7.93;;
73951;SDS011;62304;47.662;18.324;2023-12-14T14:18:35;17.73;;;8.98;;
73951;SDS011;62304;47.662;18.324;2023-12-14T14:21:39;16.73;;;7.78;;
73951;SDS011;62304;47.662;18.324;2023-12-14T14:24:42;17.37;;;8.63;;
73951;SDS011;62304;47.662;18.324;2023-12-14T14:27:45;17.02;;;9.05;;
73951;SDS011;62304;47.662;18.324;2023-12-14T14:30:49;14.83;;;6.80;;
73951;SDS011;62304;47.662;18.324;2023-12-14T14:33:53;14.00;;;6.80;;
73951;SDS011;62304;47.662;18.324;2023-12-14T14:36:56;18.73;;;8.13;;
73951;SDS011;62304;47.662;18.324;2023-12-14T14:40:00;20.90;;;9.48;;
73951;SDS011;62304;47.662;18.324;2023-12-14T14:43:02;20.20;;;8.90;;
73951;SDS011;62304;47.662;18.324;2023-12-14T14:46:06;15.37;;;6.97;;
73951;SDS011;62304;47.662;18.324;2023-12-14T14:49:09;19.23;;;8.95;;
73951;SDS011;62304;47.662;18.324;2023-12-14T14:52:12;19.90;;;8.65;;
73951;SDS011;62304;47.662;18.324;2023-12-14T14:55:15;10.30;;;4.95;;
73951;SDS011;62304;47.662;18.324;2023-12-14T14:58:18;18.27;;;8.55;;
73951;SDS011;62304;47.662;18.324;2023-12-14T15:01:21;24.83;;;10.83;;
73951;SDS011;62304;47.662;18.324;2023-12-14T15:04:25;22.50;;;11.25;;
73951;SDS011;62304;47.662;18.324;2023-12-14T15:07:28;17.37;;;6.95;;
73951;SDS011;62304;47.662;18.324;2023-12-14T15:10:33;17.00;;;6.82;;
73951;SDS011;62304;47.662;18.324;2023-12-14T15:13:37;14.75;;;6.68;;
73951;SDS011;62304;47.662;18.324;2023-12-14T15:16:40;17.83;;;7.97;;
73951;SDS011;62304;47.662;18.324;2023-12-14T15:19:43;18.87;;;8.95;;
73951;SDS011;62304;47.662;18.324;2023-12-14T15:22:49;17.60;;;8.40;;
73951;SDS011;62304;47.662;18.324;2023-12-14T15:25:52;18.55;;;8.30;;
73951;SDS011;62304;47.662;18.324;2023-12-14T15:28:58;17.83;;;8.80;;
73951;SDS011;62304;47.662;18.324;2023-12-14T15:32:01;18.13;;;8.60;;
73951;SDS011;62304;47.662;18.324;2023-12-14T15:35:05;18.10;;;8.43;;
73951;SDS011;62304;47.662;18.324;2023-12-14T15:38:08;17.80;;;8.30;;
73951;SDS011;62304;47.662;18.324;2023-12-14T15:41:12;20.35;;;10.00;;
73951;SDS011;62304;47.662;18.324;2023-12-14T15:44:16;16.67;;;8.48;;
73951;SDS011;62304;47.662;18.324;2023-12-14T15:47:19;23.70;;;12.13;;
73951;SDS011;62304;47.662;18.324;2023-12-14T15:50:23;21.77;;;12.75;;
73951;SDS011;62304;47.662;18.324;2023-12-14T15:53:26;23.95;;;13.20;;
73951;SDS011;62304;47.662;18.324;2023-12-14T15:56:29;22.20;;;11.82;;
73951;SDS011;62304;47.662;18.324;2023-12-14T15:59:37;22.98;;;10.68;;
73951;SDS011;62304;47.662;18.324;2023-12-14T16:02:40;25.37;;;11.73;;
73951;SDS011;62304;47.662;18.324;2023-12-14T16:05:44;24.48;;;11.65;;
73951;SDS011;62304;47.662;18.324;2023-12-14T16:08:47;25.15;;;11.23;;
73951;SDS011;62304;47.662;18.324;2023-12-14T16:11:51;22.05;;;10.40;;
73951;SDS011;62304;47.662;18.324;2023-12-14T16:14:53;22.62;;;10.93;;
73951;SDS011;62304;47.662;18.324;2023-12-14T16:17:59;23.57;;;9.73;;
73951;SDS011;62304;47.662;18.324;2023-12-14T16:21:02;24.27;;;10.32;;
73951;SDS011;62304;47.662;18.324;2023-12-14T16:24:06;20.88;;;10.18;;
73951;SDS011;62304;47.662;18.324;2023-12-14T16:27:10;20.12;;;9.43;;
73951;SDS011;62304;47.662;18.324;2023-12-14T16:30:13;23.50;;;10.45;;
73951;SDS011;62304;47.662;18.324;2023-12-14T16:33:17;28.10;;;11.87;;
73951;SDS011;62304;47.662;18.324;2023-12-14T16:36:21;23.02;;;11.20;;
73951;SDS011;62304;47.662;18.324;2023-12-14T16:39:24;22.62;;;10.75;;
73951;SDS011;62304;47.662;18.324;2023-12-14T16:42:30;30.00;;;11.02;;
73951;SDS011;62304;47.662;18.324;2023-12-14T16:45:34;50.83;;;22.73;;
73951;SDS011;62304;47.662;18.324;2023-12-14T16:48:37;34.77;;;15.37;;
73951;SDS011;62304;47.662;18.324;2023-12-14T16:51:41;97.37;;;36.88;;
73951;SDS011;62304;47.662;18.324;2023-12-14T16:54:44;115.10;;;40.12;;
73951;SDS011;62304;47.662;18.324;2023-12-14T16:57:48;105.68;;;36.88;;
73951;SDS011;62304;47.662;18.324;2023-12-14T17:00:51;71.72;;;26.87;;
73951;SDS011;62304;47.662;18.324;2023-12-14T17:03:56;95.20;;;38.03;;
73951;SDS011;62304;47.662;18.324;2023-12-14T17:06:59;60.35;;;22.80;;
73951;SDS011;62304;47.662;18.324;2023-12-14T17:10:05;42.97;;;19.27;;
73951;SDS011;62304;47.662;18.324;2023-12-14T17:13:09;32.58;;;15.00;;
73951;SDS011;62304;47.662;18.324;2023-12-14T17:16:13;32.23;;;15.10;;
73951;SDS011;62304;47.662;18.324;2023-12-14T17:19:23;32.55;;;14.27;;
73951;SDS011;62304;47.662;18.324;2023-12-14T17:22:26;33.83;;;16.70;;
73951;SDS011;62304;47.662;18.324;2023-12-14T17:25:34;26.75;;;15.60;;
73951;SDS011;62304;47.662;18.324;2023-12-14T17:28:38;42.58;;;18.00;;
73951;SDS011;62304;47.662;18.324;2023-12-14T17:31:43;35.87;;;20.17;;
73951;SDS011;62304;47.662;18.324;2023-12-14T17:34:46;34.80;;;16.33;;
73951;SDS011;62304;47.662;18.324;2023-12-14T17:37:50;41.37;;;19.12;;
73951;SDS011;62304;47.662;18.324;2023-12-14T17:40:53;54.70;;;26.52;;
73951;SDS011;62304;47.662;18.324;2023-12-14T17:43:56;48.58;;;26.25;;
73951;SDS011;62304;47.662;18.324;2023-12-14T17:47:00;43.20;;;19.63;;